Terminal Aerodrome Forecast
Issued by NWS Wakefield, VA

Home | Current Version | Previous Version | Text Only | Print | Product List | Glossary On
Versions: 1 2 3 4 5 6 7 8 9 10 11 12 13 14 15 16 17 18 19 20
000
FTUS41 KAKQ 141000 AAA
TAFSBY
TAF AMD
KSBY 141005Z 1410/1506 20006KT P6SM BKN250
     FM141300 20009KT P6SM SCT020 SCT250
     FM141700 22012G20KT P6SM SCT050 BKN250
     FM142300 17007KT P6SM SCT100 BKN250=

USA.gov is the U.S. government's official web portal to all federal, state and local government web resources and services.